sensor_id;sensor_type;location;lat;lon;timestamp;P1;durP1;ratioP1;P2;durP2;ratioP2
52848;SDS011;38714;53.180;5.812;2022-11-20T00:00:51;8.60;;;5.90;;
52848;SDS011;38714;53.180;5.812;2022-11-20T00:03:16;8.20;;;5.53;;
52848;SDS011;38714;53.180;5.812;2022-11-20T00:05:42;8.57;;;5.73;;
52848;SDS011;38714;53.180;5.812;2022-11-20T00:08:08;9.47;;;5.87;;
52848;SDS011;38714;53.180;5.812;2022-11-20T00:10:37;8.67;;;5.27;;
52848;SDS011;38714;53.180;5.812;2022-11-20T00:13:04;6.73;;;4.43;;
52848;SDS011;38714;53.180;5.812;2022-11-20T00:15:31;8.30;;;7.00;;
52848;SDS011;38714;53.180;5.812;2022-11-20T00:17:57;11.33;;;6.87;;
52848;SDS011;38714;53.180;5.812;2022-11-20T00:20:22;7.90;;;6.17;;
52848;SDS011;38714;53.180;5.812;2022-11-20T00:22:48;8.90;;;5.77;;
52848;SDS011;38714;53.180;5.812;2022-11-20T00:25:15;10.23;;;6.10;;
52848;SDS011;38714;53.180;5.812;2022-11-20T00:27:40;8.60;;;5.57;;
52848;SDS011;38714;53.180;5.812;2022-11-20T00:30:06;7.30;;;5.63;;
52848;SDS011;38714;53.180;5.812;2022-11-20T00:32:32;10.33;;;6.23;;
52848;SDS011;38714;53.180;5.812;2022-11-20T00:34:57;11.63;;;7.17;;
52848;SDS011;38714;53.180;5.812;2022-11-20T00:37:23;10.87;;;6.77;;
52848;SDS011;38714;53.180;5.812;2022-11-20T00:39:48;6.63;;;4.80;;
52848;SDS011;38714;53.180;5.812;2022-11-20T00:42:14;8.07;;;5.37;;
52848;SDS011;38714;53.180;5.812;2022-11-20T00:44:40;11.83;;;6.80;;
52848;SDS011;38714;53.180;5.812;2022-11-20T00:47:05;9.67;;;4.70;;
52848;SDS011;38714;53.180;5.812;2022-11-20T00:49:31;7.37;;;6.13;;
52848;SDS011;38714;53.180;5.812;2022-11-20T00:51:56;16.00;;;7.43;;
52848;SDS011;38714;53.180;5.812;2022-11-20T00:54:22;8.77;;;4.80;;
52848;SDS011;38714;53.180;5.812;2022-11-20T00:56:47;7.53;;;5.60;;
52848;SDS011;38714;53.180;5.812;2022-11-20T00:59:13;9.80;;;5.53;;
52848;SDS011;38714;53.180;5.812;2022-11-20T01:01:38;6.97;;;6.27;;
52848;SDS011;38714;53.180;5.812;2022-11-20T01:04:04;13.93;;;5.67;;
52848;SDS011;38714;53.180;5.812;2022-11-20T01:06:31;9.17;;;5.53;;
52848;SDS011;38714;53.180;5.812;2022-11-20T01:09:00;8.67;;;6.60;;
52848;SDS011;38714;53.180;5.812;2022-11-20T01:11:35;9.97;;;6.70;;
52848;SDS011;38714;53.180;5.812;2022-11-20T01:14:03;6.37;;;5.70;;
52848;SDS011;38714;53.180;5.812;2022-11-20T01:16:34;6.97;;;6.23;;
52848;SDS011;38714;53.180;5.812;2022-11-20T01:19:02;9.77;;;5.97;;
52848;SDS011;38714;53.180;5.812;2022-11-20T01:21:33;10.33;;;6.30;;
52848;SDS011;38714;53.180;5.812;2022-11-20T01:24:02;10.10;;;5.45;;
52848;SDS011;38714;53.180;5.812;2022-11-20T01:26:30;7.60;;;5.13;;
52848;SDS011;38714;53.180;5.812;2022-11-20T01:28:57;9.77;;;7.17;;
52848;SDS011;38714;53.180;5.812;2022-11-20T01:31:24;6.60;;;4.70;;
52848;SDS011;38714;53.180;5.812;2022-11-20T01:34:02;7.77;;;5.90;;
52848;SDS011;38714;53.180;5.812;2022-11-20T01:36:33;11.18;;;5.80;;
52848;SDS011;38714;53.180;5.812;2022-11-20T01:39:01;10.90;;;6.80;;
52848;SDS011;38714;53.180;5.812;2022-11-20T01:41:31;14.10;;;5.87;;
52848;SDS011;38714;53.180;5.812;2022-11-20T01:44:17;9.73;;;6.70;;
52848;SDS011;38714;53.180;5.812;2022-11-20T01:47:06;10.20;;;5.73;;
52848;SDS011;38714;53.180;5.812;2022-11-20T01:49:34;5.77;;;5.30;;
52848;SDS011;38714;53.180;5.812;2022-11-20T01:52:05;6.20;;;5.18;;
52848;SDS011;38714;53.180;5.812;2022-11-20T01:54:42;5.40;;;4.50;;
52848;SDS011;38714;53.180;5.812;2022-11-20T01:57:12;7.73;;;5.83;;
52848;SDS011;38714;53.180;5.812;2022-11-20T01:59:41;6.07;;;5.43;;
52848;SDS011;38714;53.180;5.812;2022-11-20T02:04:38;6.20;;;4.53;;
52848;SDS011;38714;53.180;5.812;2022-11-20T02:07:04;8.70;;;7.13;;
52848;SDS011;38714;53.180;5.812;2022-11-20T02:09:30;18.93;;;8.23;;
52848;SDS011;38714;53.180;5.812;2022-11-20T02:14:24;9.27;;;6.00;;
52848;SDS011;38714;53.180;5.812;2022-11-20T02:16:50;9.07;;;6.20;;
52848;SDS011;38714;53.180;5.812;2022-11-20T02:19:20;9.77;;;5.53;;
52848;SDS011;38714;53.180;5.812;2022-11-20T02:24:30;8.77;;;6.77;;
52848;SDS011;38714;53.180;5.812;2022-11-20T02:27:00;8.07;;;6.00;;
52848;SDS011;38714;53.180;5.812;2022-11-20T02:29:34;11.90;;;5.63;;
52848;SDS011;38714;53.180;5.812;2022-11-20T02:32:00;9.50;;;5.80;;
52848;SDS011;38714;53.180;5.812;2022-11-20T02:34:27;9.83;;;5.87;;
52848;SDS011;38714;53.180;5.812;2022-11-20T02:36:53;9.37;;;6.60;;
52848;SDS011;38714;53.180;5.812;2022-11-20T02:39:20;12.47;;;7.97;;
52848;SDS011;38714;53.180;5.812;2022-11-20T02:41:48;7.77;;;6.00;;
52848;SDS011;38714;53.180;5.812;2022-11-20T02:44:13;13.90;;;8.20;;
52848;SDS011;38714;53.180;5.812;2022-11-20T02:46:39;7.07;;;6.47;;
52848;SDS011;38714;53.180;5.812;2022-11-20T02:49:05;8.33;;;7.40;;
52848;SDS011;38714;53.180;5.812;2022-11-20T02:51:31;9.43;;;6.63;;
52848;SDS011;38714;53.180;5.812;2022-11-20T02:53:57;7.33;;;5.83;;
52848;SDS011;38714;53.180;5.812;2022-11-20T02:56:23;7.10;;;5.43;;
52848;SDS011;38714;53.180;5.812;2022-11-20T02:58:49;9.57;;;7.47;;
52848;SDS011;38714;53.180;5.812;2022-11-20T03:01:14;10.70;;;6.77;;
52848;SDS011;38714;53.180;5.812;2022-11-20T03:03:40;9.00;;;6.60;;
52848;SDS011;38714;53.180;5.812;2022-11-20T03:06:06;8.27;;;7.47;;
52848;SDS011;38714;53.180;5.812;2022-11-20T03:08:31;12.10;;;7.30;;
52848;SDS011;38714;53.180;5.812;2022-11-20T03:11:01;12.10;;;6.20;;
52848;SDS011;38714;53.180;5.812;2022-11-20T03:13:27;9.37;;;7.17;;
52848;SDS011;38714;53.180;5.812;2022-11-20T03:15:53;9.37;;;7.90;;
52848;SDS011;38714;53.180;5.812;2022-11-20T03:18:18;9.23;;;5.87;;
52848;SDS011;38714;53.180;5.812;2022-11-20T03:20:44;11.03;;;5.77;;
52848;SDS011;38714;53.180;5.812;2022-11-20T03:23:09;12.27;;;7.63;;
52848;SDS011;38714;53.180;5.812;2022-11-20T03:25:35;15.30;;;6.17;;
52848;SDS011;38714;53.180;5.812;2022-11-20T03:28:01;9.17;;;7.60;;
52848;SDS011;38714;53.180;5.812;2022-11-20T03:30:26;8.93;;;6.90;;
52848;SDS011;38714;53.180;5.812;2022-11-20T03:32:52;7.23;;;6.50;;
52848;SDS011;38714;53.180;5.812;2022-11-20T03:35:18;14.13;;;6.37;;
52848;SDS011;38714;53.180;5.812;2022-11-20T03:37:44;8.00;;;6.43;;
52848;SDS011;38714;53.180;5.812;2022-11-20T03:40:11;14.43;;;8.27;;
52848;SDS011;38714;53.180;5.812;2022-11-20T03:42:37;10.47;;;6.97;;
52848;SDS011;38714;53.180;5.812;2022-11-20T03:45:12;8.63;;;5.63;;
52848;SDS011;38714;53.180;5.812;2022-11-20T03:47:39;7.23;;;5.83;;
52848;SDS011;38714;53.180;5.812;2022-11-20T03:50:04;7.47;;;5.07;;
52848;SDS011;38714;53.180;5.812;2022-11-20T03:52:30;9.43;;;4.87;;
52848;SDS011;38714;53.180;5.812;2022-11-20T03:54:56;8.60;;;7.13;;
52848;SDS011;38714;53.180;5.812;2022-11-20T03:57:21;13.50;;;6.30;;
52848;SDS011;38714;53.180;5.812;2022-11-20T03:59:47;10.60;;;6.20;;
52848;SDS011;38714;53.180;5.812;2022-11-20T04:02:12;6.87;;;4.57;;
52848;SDS011;38714;53.180;5.812;2022-11-20T04:04:38;12.03;;;5.00;;
52848;SDS011;38714;53.180;5.812;2022-11-20T04:07:03;10.47;;;5.13;;
52848;SDS011;38714;53.180;5.812;2022-11-20T04:09:29;10.47;;;6.77;;
52848;SDS011;38714;53.180;5.812;2022-11-20T04:11:54;9.60;;;6.77;;
52848;SDS011;38714;53.180;5.812;2022-11-20T04:14:20;8.37;;;6.77;;
52848;SDS011;38714;53.180;5.812;2022-11-20T04:16:46;5.83;;;4.67;;
52848;SDS011;38714;53.180;5.812;2022-11-20T04:19:13;8.00;;;5.23;;
52848;SDS011;38714;53.180;5.812;2022-11-20T04:21:41;12.17;;;5.57;;
52848;SDS011;38714;53.180;5.812;2022-11-20T04:24:07;6.47;;;4.90;;
52848;SDS011;38714;53.180;5.812;2022-11-20T04:26:33;15.17;;;6.57;;
52848;SDS011;38714;53.180;5.812;2022-11-20T04:28:59;9.80;;;6.40;;
52848;SDS011;38714;53.180;5.812;2022-11-20T04:31:27;7.87;;;5.60;;
52848;SDS011;38714;53.180;5.812;2022-11-20T04:33:55;9.93;;;5.60;;
52848;SDS011;38714;53.180;5.812;2022-11-20T04:36:24;9.50;;;6.23;;
52848;SDS011;38714;53.180;5.812;2022-11-20T04:38:51;8.57;;;6.00;;
52848;SDS011;38714;53.180;5.812;2022-11-20T04:41:19;5.90;;;5.17;;
52848;SDS011;38714;53.180;5.812;2022-11-20T04:43:46;5.17;;;4.53;;
52848;SDS011;38714;53.180;5.812;2022-11-20T04:46:13;8.07;;;5.70;;
52848;SDS011;38714;53.180;5.812;2022-11-20T04:48:40;6.23;;;5.47;;
52848;SDS011;38714;53.180;5.812;2022-11-20T04:51:05;10.13;;;6.27;;
52848;SDS011;38714;53.180;5.812;2022-11-20T04:53:31;6.67;;;5.60;;
52848;SDS011;38714;53.180;5.812;2022-11-20T04:56:00;7.33;;;5.80;;
52848;SDS011;38714;53.180;5.812;2022-11-20T04:58:28;8.80;;;5.40;;
52848;SDS011;38714;53.180;5.812;2022-11-20T05:00:59;6.70;;;4.67;;
52848;SDS011;38714;53.180;5.812;2022-11-20T05:03:29;12.37;;;5.47;;
52848;SDS011;38714;53.180;5.812;2022-11-20T05:05:55;6.23;;;5.63;;
52848;SDS011;38714;53.180;5.812;2022-11-20T05:08:21;7.00;;;5.07;;
52848;SDS011;38714;53.180;5.812;2022-11-20T05:10:47;9.57;;;6.00;;
52848;SDS011;38714;53.180;5.812;2022-11-20T05:13:13;7.17;;;4.60;;
52848;SDS011;38714;53.180;5.812;2022-11-20T05:15:38;6.17;;;4.77;;
52848;SDS011;38714;53.180;5.812;2022-11-20T05:18:04;8.50;;;5.07;;
52848;SDS011;38714;53.180;5.812;2022-11-20T05:20:29;6.10;;;4.90;;
52848;SDS011;38714;53.180;5.812;2022-11-20T05:22:58;9.20;;;5.50;;
52848;SDS011;38714;53.180;5.812;2022-11-20T05:25:23;7.70;;;4.47;;
52848;SDS011;38714;53.180;5.812;2022-11-20T05:27:50;8.27;;;6.27;;
52848;SDS011;38714;53.180;5.812;2022-11-20T05:30:15;7.80;;;6.43;;
52848;SDS011;38714;53.180;5.812;2022-11-20T05:32:41;7.03;;;5.07;;
52848;SDS011;38714;53.180;5.812;2022-11-20T05:35:07;4.43;;;4.10;;
52848;SDS011;38714;53.180;5.812;2022-11-20T05:37:32;6.17;;;5.53;;
52848;SDS011;38714;53.180;5.812;2022-11-20T05:39:58;6.00;;;4.23;;
52848;SDS011;38714;53.180;5.812;2022-11-20T05:42:24;6.73;;;4.83;;
52848;SDS011;38714;53.180;5.812;2022-11-20T05:44:56;5.00;;;3.27;;
52848;SDS011;38714;53.180;5.812;2022-11-20T05:47:22;10.10;;;5.60;;
52848;SDS011;38714;53.180;5.812;2022-11-20T05:49:47;8.53;;;6.77;;
52848;SDS011;38714;53.180;5.812;2022-11-20T05:52:13;6.87;;;5.63;;
52848;SDS011;38714;53.180;5.812;2022-11-20T05:54:39;10.17;;;6.80;;
52848;SDS011;38714;53.180;5.812;2022-11-20T05:57:04;7.33;;;6.00;;
52848;SDS011;38714;53.180;5.812;2022-11-20T05:59:30;9.13;;;4.70;;
52848;SDS011;38714;53.180;5.812;2022-11-20T06:01:55;7.07;;;6.20;;
52848;SDS011;38714;53.180;5.812;2022-11-20T06:04:21;8.57;;;5.03;;
52848;SDS011;38714;53.180;5.812;2022-11-20T06:06:46;11.93;;;6.17;;
52848;SDS011;38714;53.180;5.812;2022-11-20T06:09:12;8.33;;;5.03;;
52848;SDS011;38714;53.180;5.812;2022-11-20T06:11:38;8.83;;;6.43;;
52848;SDS011;38714;53.180;5.812;2022-11-20T06:14:03;6.97;;;6.27;;
52848;SDS011;38714;53.180;5.812;2022-11-20T06:16:29;8.10;;;5.80;;
52848;SDS011;38714;53.180;5.812;2022-11-20T06:18:55;5.83;;;4.97;;
52848;SDS011;38714;53.180;5.812;2022-11-20T06:21:21;4.90;;;3.93;;
52848;SDS011;38714;53.180;5.812;2022-11-20T06:23:47;4.20;;;3.67;;
52848;SDS011;38714;53.180;5.812;2022-11-20T06:26:15;6.13;;;5.30;;
52848;SDS011;38714;53.180;5.812;2022-11-20T06:28:43;11.33;;;5.53;;
52848;SDS011;38714;53.180;5.812;2022-11-20T06:31:10;5.07;;;4.20;;
52848;SDS011;38714;53.180;5.812;2022-11-20T06:33:37;8.77;;;5.33;;
52848;SDS011;38714;53.180;5.812;2022-11-20T06:36:03;7.67;;;6.23;;
52848;SDS011;38714;53.180;5.812;2022-11-20T06:38:29;7.70;;;4.50;;
52848;SDS011;38714;53.180;5.812;2022-11-20T06:40:55;4.17;;;3.63;;
52848;SDS011;38714;53.180;5.812;2022-11-20T06:43:21;8.30;;;5.33;;
52848;SDS011;38714;53.180;5.812;2022-11-20T06:45:56;6.23;;;5.40;;
52848;SDS011;38714;53.180;5.812;2022-11-20T06:48:23;6.57;;;4.33;;
52848;SDS011;38714;53.180;5.812;2022-11-20T06:50:51;6.97;;;4.93;;
52848;SDS011;38714;53.180;5.812;2022-11-20T06:53:16;4.47;;;4.07;;
52848;SDS011;38714;53.180;5.812;2022-11-20T06:55:43;5.70;;;5.20;;
52848;SDS011;38714;53.180;5.812;2022-11-20T06:58:09;6.83;;;4.30;;
52848;SDS011;38714;53.180;5.812;2022-11-20T07:00:35;6.97;;;6.33;;
52848;SDS011;38714;53.180;5.812;2022-11-20T07:03:04;11.27;;;6.63;;
52848;SDS011;38714;53.180;5.812;2022-11-20T07:05:30;11.27;;;7.60;;
52848;SDS011;38714;53.180;5.812;2022-11-20T07:07:56;9.10;;;5.07;;
52848;SDS011;38714;53.180;5.812;2022-11-20T07:10:22;9.27;;;5.33;;
52848;SDS011;38714;53.180;5.812;2022-11-20T07:12:49;11.27;;;6.13;;
52848;SDS011;38714;53.180;5.812;2022-11-20T07:15:18;10.63;;;6.47;;
52848;SDS011;38714;53.180;5.812;2022-11-20T07:17:44;8.77;;;5.27;;
52848;SDS011;38714;53.180;5.812;2022-11-20T07:20:10;9.23;;;6.97;;
52848;SDS011;38714;53.180;5.812;2022-11-20T07:22:36;10.57;;;6.20;;
52848;SDS011;38714;53.180;5.812;2022-11-20T07:25:02;7.47;;;6.27;;
52848;SDS011;38714;53.180;5.812;2022-11-20T07:27:28;6.77;;;6.13;;
52848;SDS011;38714;53.180;5.812;2022-11-20T07:29:54;10.77;;;5.90;;
52848;SDS011;38714;53.180;5.812;2022-11-20T07:32:20;7.83;;;5.57;;
52848;SDS011;38714;53.180;5.812;2022-11-20T07:34:46;9.03;;;6.30;;
52848;SDS011;38714;53.180;5.812;2022-11-20T07:37:12;9.20;;;6.50;;
52848;SDS011;38714;53.180;5.812;2022-11-20T07:39:38;10.27;;;5.60;;
52848;SDS011;38714;53.180;5.812;2022-11-20T07:42:03;12.17;;;7.60;;
52848;SDS011;38714;53.180;5.812;2022-11-20T07:44:30;10.07;;;8.30;;
52848;SDS011;38714;53.180;5.812;2022-11-20T07:46:56;7.37;;;5.57;;
52848;SDS011;38714;53.180;5.812;2022-11-20T07:49:21;12.83;;;7.47;;
52848;SDS011;38714;53.180;5.812;2022-11-20T07:51:47;11.90;;;6.17;;
52848;SDS011;38714;53.180;5.812;2022-11-20T07:54:15;10.90;;;7.27;;
52848;SDS011;38714;53.180;5.812;2022-11-20T07:56:41;8.50;;;6.20;;
52848;SDS011;38714;53.180;5.812;2022-11-20T07:59:06;9.43;;;6.40;;
52848;SDS011;38714;53.180;5.812;2022-11-20T08:01:32;10.93;;;7.33;;
52848;SDS011;38714;53.180;5.812;2022-11-20T08:03:57;6.77;;;6.00;;
52848;SDS011;38714;53.180;5.812;2022-11-20T08:06:23;8.07;;;6.37;;
52848;SDS011;38714;53.180;5.812;2022-11-20T08:08:49;14.20;;;8.30;;
52848;SDS011;38714;53.180;5.812;2022-11-20T08:11:15;9.07;;;6.73;;
52848;SDS011;38714;53.180;5.812;2022-11-20T08:14:00;7.97;;;5.50;;
52848;SDS011;38714;53.180;5.812;2022-11-20T08:16:47;11.50;;;7.10;;
52848;SDS011;38714;53.180;5.812;2022-11-20T08:19:14;10.40;;;6.07;;
52848;SDS011;38714;53.180;5.812;2022-11-20T08:21:43;8.73;;;6.63;;
52848;SDS011;38714;53.180;5.812;2022-11-20T08:24:09;11.33;;;7.33;;
52848;SDS011;38714;53.180;5.812;2022-11-20T08:26:35;7.27;;;5.93;;
52848;SDS011;38714;53.180;5.812;2022-11-20T08:29:02;8.53;;;6.50;;
52848;SDS011;38714;53.180;5.812;2022-11-20T08:31:29;9.10;;;6.60;;
52848;SDS011;38714;53.180;5.812;2022-11-20T08:33:55;12.00;;;7.27;;
52848;SDS011;38714;53.180;5.812;2022-11-20T08:36:22;8.33;;;6.33;;
52848;SDS011;38714;53.180;5.812;2022-11-20T08:38:50;14.10;;;5.77;;
52848;SDS011;38714;53.180;5.812;2022-11-20T08:41:17;6.27;;;5.50;;
52848;SDS011;38714;53.180;5.812;2022-11-20T08:43:49;10.18;;;5.88;;
52848;SDS011;38714;53.180;5.812;2022-11-20T08:46:15;9.93;;;7.83;;
52848;SDS011;38714;53.180;5.812;2022-11-20T08:48:45;15.70;;;8.47;;
52848;SDS011;38714;53.180;5.812;2022-11-20T08:51:11;9.77;;;6.93;;
52848;SDS011;38714;53.180;5.812;2022-11-20T08:53:37;8.03;;;7.03;;
52848;SDS011;38714;53.180;5.812;2022-11-20T08:56:06;15.60;;;6.40;;
52848;SDS011;38714;53.180;5.812;2022-11-20T08:58:35;7.23;;;6.13;;
52848;SDS011;38714;53.180;5.812;2022-11-20T09:01:02;10.40;;;7.10;;
52848;SDS011;38714;53.180;5.812;2022-11-20T09:03:28;17.53;;;7.50;;
52848;SDS011;38714;53.180;5.812;2022-11-20T09:06:00;11.33;;;6.57;;
52848;SDS011;38714;53.180;5.812;2022-11-20T09:08:28;13.07;;;7.63;;
52848;SDS011;38714;53.180;5.812;2022-11-20T09:10:55;7.90;;;5.77;;
52848;SDS011;38714;53.180;5.812;2022-11-20T09:13:21;11.43;;;6.97;;
52848;SDS011;38714;53.180;5.812;2022-11-20T09:15:52;14.10;;;8.23;;
52848;SDS011;38714;53.180;5.812;2022-11-20T09:18:19;10.20;;;6.70;;
52848;SDS011;38714;53.180;5.812;2022-11-20T09:20:45;11.50;;;7.83;;
52848;SDS011;38714;53.180;5.812;2022-11-20T09:23:11;9.23;;;6.40;;
52848;SDS011;38714;53.180;5.812;2022-11-20T09:25:36;10.87;;;7.47;;
52848;SDS011;38714;53.180;5.812;2022-11-20T09:28:02;14.07;;;8.30;;
52848;SDS011;38714;53.180;5.812;2022-11-20T09:30:28;10.47;;;7.63;;
52848;SDS011;38714;53.180;5.812;2022-11-20T09:32:53;9.73;;;6.73;;
52848;SDS011;38714;53.180;5.812;2022-11-20T09:35:19;13.53;;;6.93;;
52848;SDS011;38714;53.180;5.812;2022-11-20T09:37:45;9.03;;;6.60;;
52848;SDS011;38714;53.180;5.812;2022-11-20T09:40:45;10.93;;;7.77;;
52848;SDS011;38714;53.180;5.812;2022-11-20T09:46:00;10.70;;;7.73;;
52848;SDS011;38714;53.180;5.812;2022-11-20T09:48:40;8.90;;;6.63;;
52848;SDS011;38714;53.180;5.812;2022-11-20T09:56:37;8.63;;;7.63;;
52848;SDS011;38714;53.180;5.812;2022-11-20T09:59:06;8.70;;;6.27;;
52848;SDS011;38714;53.180;5.812;2022-11-20T10:01:39;10.77;;;7.87;;
52848;SDS011;38714;53.180;5.812;2022-11-20T10:04:18;9.37;;;6.20;;
52848;SDS011;38714;53.180;5.812;2022-11-20T10:09:35;8.43;;;7.23;;
52848;SDS011;38714;53.180;5.812;2022-11-20T10:26:24;9.07;;;6.80;;
52848;SDS011;38714;53.180;5.812;2022-11-20T10:29:07;14.53;;;6.17;;
52848;SDS011;38714;53.180;5.812;2022-11-20T10:31:39;13.17;;;5.37;;
52848;SDS011;38714;53.180;5.812;2022-11-20T10:34:12;12.60;;;7.20;;
52848;SDS011;38714;53.180;5.812;2022-11-20T10:37:19;13.23;;;8.20;;
52848;SDS011;38714;53.180;5.812;2022-11-20T10:42:35;8.70;;;6.53;;
52848;SDS011;38714;53.180;5.812;2022-11-20T10:45:14;9.27;;;6.07;;
52848;SDS011;38714;53.180;5.812;2022-11-20T10:47:52;7.17;;;4.63;;
52848;SDS011;38714;53.180;5.812;2022-11-20T10:50:21;11.53;;;6.70;;
52848;SDS011;38714;53.180;5.812;2022-11-20T10:55:39;12.13;;;7.67;;
52848;SDS011;38714;53.180;5.812;2022-11-20T10:58:12;7.10;;;5.10;;
52848;SDS011;38714;53.180;5.812;2022-11-20T11:00:41;10.70;;;6.82;;
52848;SDS011;38714;53.180;5.812;2022-11-20T11:03:20;6.53;;;4.33;;
52848;SDS011;38714;53.180;5.812;2022-11-20T11:06:00;6.67;;;5.03;;
52848;SDS011;38714;53.180;5.812;2022-11-20T11:08:44;7.78;;;5.25;;
52848;SDS011;38714;53.180;5.812;2022-11-20T11:11:22;7.03;;;5.43;;
52848;SDS011;38714;53.180;5.812;2022-11-20T11:14:05;7.70;;;5.83;;
52848;SDS011;38714;53.180;5.812;2022-11-20T11:16:35;7.83;;;5.30;;
52848;SDS011;38714;53.180;5.812;2022-11-20T11:19:18;7.37;;;4.27;;
52848;SDS011;38714;53.180;5.812;2022-11-20T11:21:53;4.50;;;3.40;;
52848;SDS011;38714;53.180;5.812;2022-11-20T11:26:56;4.03;;;3.27;;
52848;SDS011;38714;53.180;5.812;2022-11-20T11:29:30;5.25;;;3.67;;
52848;SDS011;38714;53.180;5.812;2022-11-20T11:32:06;4.20;;;3.00;;
52848;SDS011;38714;53.180;5.812;2022-11-20T11:34:36;4.90;;;4.50;;
52848;SDS011;38714;53.180;5.812;2022-11-20T11:37:01;5.30;;;3.80;;
52848;SDS011;38714;53.180;5.812;2022-11-20T11:39:30;4.70;;;2.77;;
52848;SDS011;38714;53.180;5.812;2022-11-20T11:41:58;6.00;;;2.87;;
52848;SDS011;38714;53.180;5.812;2022-11-20T11:44:30;5.27;;;3.23;;
52848;SDS011;38714;53.180;5.812;2022-11-20T11:49:44;4.70;;;3.93;;
52848;SDS011;38714;53.180;5.812;2022-11-20T11:52:17;4.27;;;3.57;;
52848;SDS011;38714;53.180;5.812;2022-11-20T12:00:08;5.70;;;4.13;;
52848;SDS011;38714;53.180;5.812;2022-11-20T12:05:57;5.78;;;3.15;;
52848;SDS011;38714;53.180;5.812;2022-11-20T12:08:17;4.10;;;3.60;;
52848;SDS011;38714;53.180;5.812;2022-11-20T12:10:55;6.95;;;4.85;;
52848;SDS011;38714;53.180;5.812;2022-11-20T12:15:56;11.27;;;5.13;;
52848;SDS011;38714;53.180;5.812;2022-11-20T12:18:22;4.68;;;3.45;;
52848;SDS011;38714;53.180;5.812;2022-11-20T12:20:58;5.70;;;4.00;;
52848;SDS011;38714;53.180;5.812;2022-11-20T12:27:09;6.00;;;4.63;;
52848;SDS011;38714;53.180;5.812;2022-11-20T12:29:17;4.25;;;3.85;;
52848;SDS011;38714;53.180;5.812;2022-11-20T12:32:01;5.72;;;4.55;;
52848;SDS011;38714;53.180;5.812;2022-11-20T12:34:42;5.40;;;4.85;;
52848;SDS011;38714;53.180;5.812;2022-11-20T12:37:22;4.25;;;3.78;;
52848;SDS011;38714;53.180;5.812;2022-11-20T12:39:50;6.97;;;3.30;;
52848;SDS011;38714;53.180;5.812;2022-11-20T12:42:26;5.55;;;2.83;;
52848;SDS011;38714;53.180;5.812;2022-11-20T12:45:21;5.28;;;3.03;;
52848;SDS011;38714;53.180;5.812;2022-11-20T12:48:03;4.80;;;4.20;;
52848;SDS011;38714;53.180;5.812;2022-11-20T12:53:36;4.90;;;3.55;;
52848;SDS011;38714;53.180;5.812;2022-11-20T13:01:47;4.72;;;3.65;;
52848;SDS011;38714;53.180;5.812;2022-11-20T13:06:57;3.78;;;3.05;;
52848;SDS011;38714;53.180;5.812;2022-11-20T13:09:24;6.35;;;3.55;;
52848;SDS011;38714;53.180;5.812;2022-11-20T13:12:01;6.93;;;3.90;;
52848;SDS011;38714;53.180;5.812;2022-11-20T13:17:17;4.93;;;3.90;;
52848;SDS011;38714;53.180;5.812;2022-11-20T13:19:57;6.50;;;3.80;;
52848;SDS011;38714;53.180;5.812;2022-11-20T13:22:24;5.93;;;2.65;;
52848;SDS011;38714;53.180;5.812;2022-11-20T13:24:54;4.40;;;4.03;;
52848;SDS011;38714;53.180;5.812;2022-11-20T13:27:23;4.15;;;3.75;;
52848;SDS011;38714;53.180;5.812;2022-11-20T13:35:35;6.43;;;3.72;;
52848;SDS011;38714;53.180;5.812;2022-11-20T13:38:08;7.32;;;3.88;;
52848;SDS011;38714;53.180;5.812;2022-11-20T13:40:39;5.22;;;3.70;;
52848;SDS011;38714;53.180;5.812;2022-11-20T13:46:01;5.43;;;3.72;;
52848;SDS011;38714;53.180;5.812;2022-11-20T13:48:33;4.30;;;4.00;;
52848;SDS011;38714;53.180;5.812;2022-11-20T13:51:26;5.22;;;3.85;;
52848;SDS011;38714;53.180;5.812;2022-11-20T13:54:01;8.10;;;4.30;;
52848;SDS011;38714;53.180;5.812;2022-11-20T14:02:19;7.18;;;6.00;;
52848;SDS011;38714;53.180;5.812;2022-11-20T14:04:47;10.93;;;6.63;;
52848;SDS011;38714;53.180;5.812;2022-11-20T14:07:20;7.65;;;5.13;;
52848;SDS011;38714;53.180;5.812;2022-11-20T14:09:51;7.20;;;4.05;;
52848;SDS011;38714;53.180;5.812;2022-11-20T14:12:18;3.97;;;3.20;;
52848;SDS011;38714;53.180;5.812;2022-11-20T14:14:51;8.30;;;5.20;;
52848;SDS011;38714;53.180;5.812;2022-11-20T14:19:50;9.07;;;4.60;;
52848;SDS011;38714;53.180;5.812;2022-11-20T14:22:24;7.03;;;4.25;;
52848;SDS011;38714;53.180;5.812;2022-11-20T14:25:02;6.82;;;3.45;;
52848;SDS011;38714;53.180;5.812;2022-11-20T14:27:32;9.00;;;5.53;;
52848;SDS011;38714;53.180;5.812;2022-11-20T14:30:01;7.38;;;4.50;;
52848;SDS011;38714;53.180;5.812;2022-11-20T14:32:28;4.82;;;4.35;;
52848;SDS011;38714;53.180;5.812;2022-11-20T14:34:55;5.03;;;3.65;;
52848;SDS011;38714;53.180;5.812;2022-11-20T14:37:28;4.30;;;3.25;;
52848;SDS011;38714;53.180;5.812;2022-11-20T14:39:58;5.60;;;4.35;;
52848;SDS011;38714;53.180;5.812;2022-11-20T14:42:26;11.43;;;5.57;;
52848;SDS011;38714;53.180;5.812;2022-11-20T14:44:54;4.65;;;3.88;;
52848;SDS011;38714;53.180;5.812;2022-11-20T14:47:22;5.82;;;4.43;;
52848;SDS011;38714;53.180;5.812;2022-11-20T14:49:51;5.55;;;3.45;;
52848;SDS011;38714;53.180;5.812;2022-11-20T14:52:21;8.00;;;5.32;;
52848;SDS011;38714;53.180;5.812;2022-11-20T14:54:50;6.13;;;5.10;;
52848;SDS011;38714;53.180;5.812;2022-11-20T15:00:04;8.05;;;6.13;;
52848;SDS011;38714;53.180;5.812;2022-11-20T15:02:43;6.45;;;5.65;;
52848;SDS011;38714;53.180;5.812;2022-11-20T15:05:10;11.27;;;6.50;;
52848;SDS011;38714;53.180;5.812;2022-11-20T15:07:37;6.68;;;4.40;;
52848;SDS011;38714;53.180;5.812;2022-11-20T15:10:07;9.43;;;6.22;;
52848;SDS011;38714;53.180;5.812;2022-11-20T15:12:35;8.43;;;4.18;;
52848;SDS011;38714;53.180;5.812;2022-11-20T15:15:05;11.35;;;5.88;;
52848;SDS011;38714;53.180;5.812;2022-11-20T15:17:38;6.22;;;3.95;;
52848;SDS011;38714;53.180;5.812;2022-11-20T15:20:05;4.18;;;3.78;;
52848;SDS011;38714;53.180;5.812;2022-11-20T15:22:41;7.45;;;5.50;;
52848;SDS011;38714;53.180;5.812;2022-11-20T15:25:14;7.90;;;3.55;;
52848;SDS011;38714;53.180;5.812;2022-11-20T15:27:41;8.23;;;5.10;;
52848;SDS011;38714;53.180;5.812;2022-11-20T15:30:12;5.43;;;4.20;;
52848;SDS011;38714;53.180;5.812;2022-11-20T15:32:42;6.05;;;5.00;;
52848;SDS011;38714;53.180;5.812;2022-11-20T15:35:08;7.20;;;4.63;;
52848;SDS011;38714;53.180;5.812;2022-11-20T15:37:35;7.15;;;6.50;;
52848;SDS011;38714;53.180;5.812;2022-11-20T15:40:01;4.55;;;3.88;;
52848;SDS011;38714;53.180;5.812;2022-11-20T15:42:27;10.52;;;7.78;;
52848;SDS011;38714;53.180;5.812;2022-11-20T15:44:53;26.90;;;20.27;;
52848;SDS011;38714;53.180;5.812;2022-11-20T15:47:19;42.55;;;27.45;;
52848;SDS011;38714;53.180;5.812;2022-11-20T15:49:49;23.70;;;11.37;;
52848;SDS011;38714;53.180;5.812;2022-11-20T15:52:15;20.83;;;15.32;;
52848;SDS011;38714;53.180;5.812;2022-11-20T15:54:41;10.25;;;7.70;;
52848;SDS011;38714;53.180;5.812;2022-11-20T15:57:06;7.27;;;5.83;;
52848;SDS011;38714;53.180;5.812;2022-11-20T15:59:32;12.05;;;10.00;;
52848;SDS011;38714;53.180;5.812;2022-11-20T16:01:58;14.00;;;8.32;;
52848;SDS011;38714;53.180;5.812;2022-11-20T16:04:23;15.60;;;10.07;;
52848;SDS011;38714;53.180;5.812;2022-11-20T16:06:49;10.27;;;6.68;;
52848;SDS011;38714;53.180;5.812;2022-11-20T16:09:15;9.38;;;6.68;;
52848;SDS011;38714;53.180;5.812;2022-11-20T16:11:40;10.20;;;6.53;;
52848;SDS011;38714;53.180;5.812;2022-11-20T16:14:08;11.73;;;6.32;;
52848;SDS011;38714;53.180;5.812;2022-11-20T16:16:53;9.43;;;7.53;;
52848;SDS011;38714;53.180;5.812;2022-11-20T16:19:19;8.60;;;5.72;;
52848;SDS011;38714;53.180;5.812;2022-11-20T16:21:44;9.45;;;5.97;;
52848;SDS011;38714;53.180;5.812;2022-11-20T16:24:11;11.70;;;5.55;;